Terminal Aerodrome Forecast
Issued by NWS

Home | Current Version | Previous Version | Graphics & Text | Print | Product List | Glossary On
Versions: 1 2 3 4 5 6 7 8 9 10 11 12 13 14 15 16 17 18 19 20 21
813
FTUS43 KOAX 232237 AAA
TAFCDR
TAF AMD
KCDR 232237Z 2323/2418 25015G25KT P6SM VCTS BKN050CB BKN100
      TEMPO 2323/2403 VRB30G40KT 3SM -TSRA BKN030CB
     FM240500 24010KT P6SM VCSH OVC050
     FM241600 25018G28KT P6SM BKN050=

USA.gov is the U.S. government's official web portal to all federal, state and local government web resources and services.